sensor_id;sensor_type;location;lat;lon;timestamp;P1;durP1;ratioP1;P2;durP2;ratioP2
59486;SDS011;45298;54.918;73.504;2022-09-25T00:02:06;72.40;;;28.90;;
59486;SDS011;45298;54.918;73.504;2022-09-25T00:04:35;78.20;;;29.95;;
59486;SDS011;45298;54.918;73.504;2022-09-25T00:07:04;82.75;;;30.48;;
59486;SDS011;45298;54.918;73.504;2022-09-25T00:09:32;78.40;;;31.58;;
59486;SDS011;45298;54.918;73.504;2022-09-25T00:12:01;79.28;;;31.02;;
59486;SDS011;45298;54.918;73.504;2022-09-25T00:14:30;86.78;;;32.40;;
59486;SDS011;45298;54.918;73.504;2022-09-25T00:16:59;171.00;;;88.53;;
59486;SDS011;45298;54.918;73.504;2022-09-25T00:19:27;89.28;;;32.78;;
59486;SDS011;45298;54.918;73.504;2022-09-25T00:22:15;188.90;;;101.20;;
59486;SDS011;45298;54.918;73.504;2022-09-25T00:24:45;233.65;;;126.55;;
59486;SDS011;45298;54.918;73.504;2022-09-25T00:27:15;90.85;;;33.53;;
59486;SDS011;45298;54.918;73.504;2022-09-25T00:29:45;80.95;;;32.45;;
59486;SDS011;45298;54.918;73.504;2022-09-25T00:32:14;99.03;;;44.25;;
59486;SDS011;45298;54.918;73.504;2022-09-25T00:34:43;118.05;;;45.63;;
59486;SDS011;45298;54.918;73.504;2022-09-25T00:37:11;76.75;;;33.58;;
59486;SDS011;45298;54.918;73.504;2022-09-25T00:39:40;82.85;;;33.72;;
59486;SDS011;45298;54.918;73.504;2022-09-25T00:42:10;76.18;;;34.17;;
59486;SDS011;45298;54.918;73.504;2022-09-25T00:44:52;76.22;;;32.58;;
59486;SDS011;45298;54.918;73.504;2022-09-25T00:47:30;80.65;;;32.78;;
59486;SDS011;45298;54.918;73.504;2022-09-25T00:50:12;100.90;;;46.33;;
59486;SDS011;45298;54.918;73.504;2022-09-25T00:52:48;83.32;;;32.70;;
59486;SDS011;45298;54.918;73.504;2022-09-25T00:55:21;75.20;;;32.65;;
59486;SDS011;45298;54.918;73.504;2022-09-25T00:57:53;86.47;;;43.10;;
59486;SDS011;45298;54.918;73.504;2022-09-25T01:00:24;83.90;;;35.20;;
59486;SDS011;45298;54.918;73.504;2022-09-25T01:02:53;103.30;;;34.45;;
59486;SDS011;45298;54.918;73.504;2022-09-25T01:05:28;69.55;;;33.30;;
59486;SDS011;45298;54.918;73.504;2022-09-25T01:08:00;54.90;;;24.20;;
59486;SDS011;45298;54.918;73.504;2022-09-25T01:10:30;70.97;;;27.65;;
59486;SDS011;45298;54.918;73.504;2022-09-25T01:13:00;49.20;;;22.98;;
59486;SDS011;45298;54.918;73.504;2022-09-25T01:16:13;63.65;;;24.30;;
59486;SDS011;45298;54.918;73.504;2022-09-25T01:18:44;60.15;;;23.23;;
59486;SDS011;45298;54.918;73.504;2022-09-25T01:21:32;56.85;;;22.77;;
59486;SDS011;45298;54.918;73.504;2022-09-25T01:24:17;45.50;;;21.88;;
59486;SDS011;45298;54.918;73.504;2022-09-25T01:30:01;57.78;;;23.00;;
59486;SDS011;45298;54.918;73.504;2022-09-25T01:46:58;50.95;;;23.35;;
59486;SDS011;45298;54.918;73.504;2022-09-25T01:49:32;48.05;;;21.40;;
59486;SDS011;45298;54.918;73.504;2022-09-25T01:52:06;49.33;;;22.67;;
59486;SDS011;45298;54.918;73.504;2022-09-25T01:54:46;54.80;;;23.88;;
59486;SDS011;45298;54.918;73.504;2022-09-25T01:57:40;57.25;;;21.65;;
59486;SDS011;45298;54.918;73.504;2022-09-25T02:00:20;61.50;;;26.15;;
59486;SDS011;45298;54.918;73.504;2022-09-25T02:02:52;51.35;;;22.02;;
59486;SDS011;45298;54.918;73.504;2022-09-25T02:05:26;60.63;;;25.70;;
59486;SDS011;45298;54.918;73.504;2022-09-25T02:08:04;58.15;;;28.88;;
59486;SDS011;45298;54.918;73.504;2022-09-25T02:10:43;56.45;;;24.63;;
59486;SDS011;45298;54.918;73.504;2022-09-25T02:13:17;59.53;;;24.17;;
59486;SDS011;45298;54.918;73.504;2022-09-25T02:15:58;55.65;;;25.63;;
59486;SDS011;45298;54.918;73.504;2022-09-25T02:18:31;61.97;;;27.23;;
59486;SDS011;45298;54.918;73.504;2022-09-25T02:21:34;58.83;;;27.67;;
59486;SDS011;45298;54.918;73.504;2022-09-25T02:24:21;66.55;;;26.23;;
59486;SDS011;45298;54.918;73.504;2022-09-25T02:26:54;55.28;;;24.42;;
59486;SDS011;45298;54.918;73.504;2022-09-25T02:29:23;61.22;;;22.92;;
59486;SDS011;45298;54.918;73.504;2022-09-25T02:32:02;63.35;;;25.30;;
59486;SDS011;45298;54.918;73.504;2022-09-25T02:34:35;59.22;;;25.10;;
59486;SDS011;45298;54.918;73.504;2022-09-25T02:37:11;59.53;;;24.35;;
59486;SDS011;45298;54.918;73.504;2022-09-25T02:39:41;58.45;;;23.30;;
59486;SDS011;45298;54.918;73.504;2022-09-25T03:01:05;67.55;;;26.05;;
59486;SDS011;45298;54.918;73.504;2022-09-25T03:03:37;37.67;;;20.13;;
59486;SDS011;45298;54.918;73.504;2022-09-25T03:06:07;47.20;;;17.80;;
59486;SDS011;45298;54.918;73.504;2022-09-25T03:08:38;47.03;;;18.50;;
59486;SDS011;45298;54.918;73.504;2022-09-25T03:11:13;39.47;;;16.60;;
59486;SDS011;45298;54.918;73.504;2022-09-25T03:13:44;35.45;;;17.10;;
59486;SDS011;45298;54.918;73.504;2022-09-25T03:18:42;36.47;;;17.95;;
59486;SDS011;45298;54.918;73.504;2022-09-25T03:21:11;44.33;;;19.10;;
59486;SDS011;45298;54.918;73.504;2022-09-25T03:23:40;35.22;;;17.35;;
59486;SDS011;45298;54.918;73.504;2022-09-25T03:26:09;43.38;;;17.73;;
59486;SDS011;45298;54.918;73.504;2022-09-25T03:28:39;51.72;;;19.25;;
59486;SDS011;45298;54.918;73.504;2022-09-25T03:31:11;40.70;;;18.63;;
59486;SDS011;45298;54.918;73.504;2022-09-25T03:33:40;39.13;;;19.88;;
59486;SDS011;45298;54.918;73.504;2022-09-25T03:38:40;48.33;;;20.65;;
59486;SDS011;45298;54.918;73.504;2022-09-25T03:41:10;47.65;;;22.02;;
59486;SDS011;45298;54.918;73.504;2022-09-25T03:43:41;41.28;;;19.55;;
59486;SDS011;45298;54.918;73.504;2022-09-25T03:46:11;40.40;;;20.55;;
59486;SDS011;45298;54.918;73.504;2022-09-25T03:48:43;46.90;;;21.15;;
59486;SDS011;45298;54.918;73.504;2022-09-25T03:51:13;38.17;;;19.85;;
59486;SDS011;45298;54.918;73.504;2022-09-25T03:53:42;40.08;;;20.35;;
59486;SDS011;45298;54.918;73.504;2022-09-25T03:56:13;42.05;;;20.15;;
59486;SDS011;45298;54.918;73.504;2022-09-25T04:01:16;43.97;;;19.85;;
59486;SDS011;45298;54.918;73.504;2022-09-25T04:03:49;40.28;;;22.52;;
59486;SDS011;45298;54.918;73.504;2022-09-25T04:06:19;41.38;;;22.13;;
59486;SDS011;45298;54.918;73.504;2022-09-25T04:08:51;39.78;;;21.00;;
59486;SDS011;45298;54.918;73.504;2022-09-25T04:11:22;44.03;;;19.55;;
59486;SDS011;45298;54.918;73.504;2022-09-25T04:13:52;44.45;;;20.75;;
59486;SDS011;45298;54.918;73.504;2022-09-25T04:16:20;49.38;;;19.88;;
59486;SDS011;45298;54.918;73.504;2022-09-25T04:18:49;41.47;;;18.15;;
59486;SDS011;45298;54.918;73.504;2022-09-25T04:21:18;36.42;;;18.35;;
59486;SDS011;45298;54.918;73.504;2022-09-25T04:23:48;39.42;;;18.00;;
59486;SDS011;45298;54.918;73.504;2022-09-25T04:26:35;36.70;;;16.77;;
59486;SDS011;45298;54.918;73.504;2022-09-25T04:29:04;39.10;;;18.02;;
59486;SDS011;45298;54.918;73.504;2022-09-25T04:31:33;42.72;;;17.25;;
59486;SDS011;45298;54.918;73.504;2022-09-25T04:34:02;35.58;;;16.83;;
59486;SDS011;45298;54.918;73.504;2022-09-25T04:36:30;39.63;;;17.30;;
59486;SDS011;45298;54.918;73.504;2022-09-25T04:38:59;40.78;;;18.50;;
59486;SDS011;45298;54.918;73.504;2022-09-25T04:41:28;42.60;;;19.58;;
59486;SDS011;45298;54.918;73.504;2022-09-25T04:43:56;45.38;;;18.55;;
59486;SDS011;45298;54.918;73.504;2022-09-25T04:46:25;48.22;;;20.63;;
59486;SDS011;45298;54.918;73.504;2022-09-25T04:48:54;50.28;;;24.55;;
59486;SDS011;45298;54.918;73.504;2022-09-25T04:51:23;31.05;;;16.80;;
59486;SDS011;45298;54.918;73.504;2022-09-25T04:53:51;41.63;;;19.02;;
59486;SDS011;45298;54.918;73.504;2022-09-25T04:56:20;83.05;;;35.00;;
59486;SDS011;45298;54.918;73.504;2022-09-25T04:58:49;75.97;;;30.90;;
59486;SDS011;45298;54.918;73.504;2022-09-25T05:01:19;45.28;;;20.95;;
59486;SDS011;45298;54.918;73.504;2022-09-25T05:03:48;50.33;;;21.92;;
59486;SDS011;45298;54.918;73.504;2022-09-25T05:06:21;37.55;;;17.80;;
59486;SDS011;45298;54.918;73.504;2022-09-25T05:08:49;30.73;;;17.17;;
59486;SDS011;45298;54.918;73.504;2022-09-25T05:11:20;39.08;;;19.63;;
59486;SDS011;45298;54.918;73.504;2022-09-25T05:13:49;40.28;;;18.58;;
59486;SDS011;45298;54.918;73.504;2022-09-25T05:16:19;45.35;;;20.10;;
59486;SDS011;45298;54.918;73.504;2022-09-25T05:18:47;48.78;;;18.42;;
59486;SDS011;45298;54.918;73.504;2022-09-25T05:21:16;59.05;;;24.45;;
59486;SDS011;45298;54.918;73.504;2022-09-25T05:23:45;77.57;;;30.13;;
59486;SDS011;45298;54.918;73.504;2022-09-25T05:26:13;139.80;;;45.58;;
59486;SDS011;45298;54.918;73.504;2022-09-25T05:28:42;64.68;;;28.23;;
59486;SDS011;45298;54.918;73.504;2022-09-25T05:31:11;58.92;;;26.85;;
59486;SDS011;45298;54.918;73.504;2022-09-25T05:33:40;57.67;;;28.42;;
59486;SDS011;45298;54.918;73.504;2022-09-25T05:36:09;64.22;;;28.35;;
59486;SDS011;45298;54.918;73.504;2022-09-25T05:38:38;56.33;;;26.20;;
59486;SDS011;45298;54.918;73.504;2022-09-25T05:41:08;54.28;;;23.63;;
59486;SDS011;45298;54.918;73.504;2022-09-25T05:43:44;64.10;;;29.42;;
59486;SDS011;45298;54.918;73.504;2022-09-25T05:46:14;60.22;;;25.30;;
59486;SDS011;45298;54.918;73.504;2022-09-25T05:48:43;54.58;;;24.42;;
59486;SDS011;45298;54.918;73.504;2022-09-25T05:51:12;55.25;;;23.83;;
59486;SDS011;45298;54.918;73.504;2022-09-25T05:53:41;52.33;;;22.95;;
59486;SDS011;45298;54.918;73.504;2022-09-25T05:56:10;47.10;;;23.33;;
59486;SDS011;45298;54.918;73.504;2022-09-25T05:58:39;46.05;;;20.15;;
59486;SDS011;45298;54.918;73.504;2022-09-25T06:01:08;71.25;;;30.27;;
59486;SDS011;45298;54.918;73.504;2022-09-25T06:03:36;208.27;;;111.32;;
59486;SDS011;45298;54.918;73.504;2022-09-25T06:06:05;71.07;;;35.80;;
59486;SDS011;45298;54.918;73.504;2022-09-25T06:08:34;282.23;;;144.20;;
59486;SDS011;45298;54.918;73.504;2022-09-25T06:11:03;145.38;;;65.53;;
59486;SDS011;45298;54.918;73.504;2022-09-25T06:13:33;41.97;;;20.50;;
59486;SDS011;45298;54.918;73.504;2022-09-25T06:16:04;86.13;;;38.08;;
59486;SDS011;45298;54.918;73.504;2022-09-25T06:18:40;50.22;;;22.55;;
59486;SDS011;45298;54.918;73.504;2022-09-25T06:21:09;195.38;;;109.03;;
59486;SDS011;45298;54.918;73.504;2022-09-25T06:23:37;51.53;;;21.90;;
59486;SDS011;45298;54.918;73.504;2022-09-25T06:26:08;42.15;;;18.65;;
59486;SDS011;45298;54.918;73.504;2022-09-25T06:28:37;40.47;;;18.02;;
59486;SDS011;45298;54.918;73.504;2022-09-25T06:31:06;41.95;;;18.85;;
59486;SDS011;45298;54.918;73.504;2022-09-25T06:33:35;63.95;;;29.40;;
59486;SDS011;45298;54.918;73.504;2022-09-25T06:36:04;34.47;;;11.73;;
59486;SDS011;45298;54.918;73.504;2022-09-25T06:38:33;35.85;;;15.82;;
59486;SDS011;45298;54.918;73.504;2022-09-25T06:41:02;28.70;;;10.70;;
59486;SDS011;45298;54.918;73.504;2022-09-25T06:43:33;55.60;;;11.00;;
59486;SDS011;45298;54.918;73.504;2022-09-25T06:46:02;42.00;;;12.45;;
59486;SDS011;45298;54.918;73.504;2022-09-25T06:48:31;27.50;;;12.55;;
59486;SDS011;45298;54.918;73.504;2022-09-25T06:51:00;31.83;;;12.93;;
59486;SDS011;45298;54.918;73.504;2022-09-25T06:53:28;28.60;;;12.73;;
59486;SDS011;45298;54.918;73.504;2022-09-25T06:55:57;59.40;;;24.27;;
59486;SDS011;45298;54.918;73.504;2022-09-25T06:58:27;103.32;;;48.28;;
59486;SDS011;45298;54.918;73.504;2022-09-25T07:00:57;88.65;;;38.92;;
59486;SDS011;45298;54.918;73.504;2022-09-25T07:03:26;103.72;;;44.35;;
59486;SDS011;45298;54.918;73.504;2022-09-25T07:06:20;37.42;;;18.15;;
59486;SDS011;45298;54.918;73.504;2022-09-25T07:08:51;42.67;;;20.10;;
59486;SDS011;45298;54.918;73.504;2022-09-25T07:11:20;24.10;;;10.07;;
59486;SDS011;45298;54.918;73.504;2022-09-25T07:13:53;24.63;;;9.60;;
59486;SDS011;45298;54.918;73.504;2022-09-25T07:16:23;24.77;;;10.32;;
59486;SDS011;45298;54.918;73.504;2022-09-25T07:18:54;37.80;;;13.10;;
59486;SDS011;45298;54.918;73.504;2022-09-25T07:21:26;34.60;;;14.57;;
59486;SDS011;45298;54.918;73.504;2022-09-25T07:23:57;37.00;;;14.07;;
59486;SDS011;45298;54.918;73.504;2022-09-25T07:26:27;52.17;;;19.60;;
59486;SDS011;45298;54.918;73.504;2022-09-25T07:28:58;40.30;;;14.73;;
59486;SDS011;45298;54.918;73.504;2022-09-25T07:31:33;29.63;;;11.63;;
59486;SDS011;45298;54.918;73.504;2022-09-25T07:34:05;31.33;;;14.23;;
59486;SDS011;45298;54.918;73.504;2022-09-25T07:36:36;35.88;;;13.13;;
59486;SDS011;45298;54.918;73.504;2022-09-25T07:39:08;34.40;;;16.73;;
59486;SDS011;45298;54.918;73.504;2022-09-25T07:41:43;35.65;;;15.07;;
59486;SDS011;45298;54.918;73.504;2022-09-25T07:44:12;31.48;;;12.60;;
59486;SDS011;45298;54.918;73.504;2022-09-25T07:46:55;32.33;;;13.25;;
59486;SDS011;45298;54.918;73.504;2022-09-25T07:49:25;77.43;;;29.67;;
59486;SDS011;45298;54.918;73.504;2022-09-25T07:51:56;120.40;;;43.22;;
59486;SDS011;45298;54.918;73.504;2022-09-25T07:54:26;81.95;;;36.22;;
59486;SDS011;45298;54.918;73.504;2022-09-25T07:56:54;54.67;;;24.17;;
59486;SDS011;45298;54.918;73.504;2022-09-25T07:59:23;45.33;;;18.80;;
59486;SDS011;45298;54.918;73.504;2022-09-25T08:01:52;48.78;;;21.60;;
59486;SDS011;45298;54.918;73.504;2022-09-25T08:04:21;75.55;;;32.92;;
59486;SDS011;45298;54.918;73.504;2022-09-25T08:06:50;84.93;;;30.40;;
59486;SDS011;45298;54.918;73.504;2022-09-25T08:09:18;69.32;;;27.95;;
59486;SDS011;45298;54.918;73.504;2022-09-25T08:11:47;83.88;;;30.60;;
59486;SDS011;45298;54.918;73.504;2022-09-25T08:14:16;213.55;;;85.10;;
59486;SDS011;45298;54.918;73.504;2022-09-25T08:19:22;87.72;;;31.30;;
59486;SDS011;45298;54.918;73.504;2022-09-25T08:21:51;48.10;;;19.17;;
59486;SDS011;45298;54.918;73.504;2022-09-25T08:24:20;38.20;;;14.73;;
59486;SDS011;45298;54.918;73.504;2022-09-25T08:26:49;51.10;;;18.77;;
59486;SDS011;45298;54.918;73.504;2022-09-25T08:29:18;54.65;;;22.10;;
59486;SDS011;45298;54.918;73.504;2022-09-25T08:31:46;37.60;;;14.88;;
59486;SDS011;45298;54.918;73.504;2022-09-25T08:34:15;37.03;;;17.48;;
59486;SDS011;45298;54.918;73.504;2022-09-25T08:37:04;36.42;;;12.90;;
59486;SDS011;45298;54.918;73.504;2022-09-25T08:39:34;59.58;;;22.27;;
59486;SDS011;45298;54.918;73.504;2022-09-25T08:42:03;52.80;;;16.27;;
59486;SDS011;45298;54.918;73.504;2022-09-25T08:44:40;39.58;;;16.33;;
59486;SDS011;45298;54.918;73.504;2022-09-25T08:47:35;47.67;;;18.95;;
59486;SDS011;45298;54.918;73.504;2022-09-25T08:50:24;86.18;;;34.08;;
59486;SDS011;45298;54.918;73.504;2022-09-25T08:53:04;32.95;;;14.57;;
59486;SDS011;45298;54.918;73.504;2022-09-25T08:55:41;35.90;;;14.77;;
59486;SDS011;45298;54.918;73.504;2022-09-25T08:58:32;44.75;;;19.25;;
59486;SDS011;45298;54.918;73.504;2022-09-25T09:01:11;32.67;;;14.48;;
59486;SDS011;45298;54.918;73.504;2022-09-25T09:03:45;37.42;;;15.30;;
59486;SDS011;45298;54.918;73.504;2022-09-25T09:06:40;37.92;;;16.20;;
59486;SDS011;45298;54.918;73.504;2022-09-25T09:09:28;44.95;;;21.20;;
59486;SDS011;45298;54.918;73.504;2022-09-25T09:12:07;42.30;;;20.88;;
59486;SDS011;45298;54.918;73.504;2022-09-25T09:15:06;23.50;;;9.63;;
59486;SDS011;45298;54.918;73.504;2022-09-25T09:17:54;37.08;;;17.48;;
59486;SDS011;45298;54.918;73.504;2022-09-25T09:20:30;62.72;;;36.72;;
59486;SDS011;45298;54.918;73.504;2022-09-25T09:23:06;49.53;;;19.52;;
59486;SDS011;45298;54.918;73.504;2022-09-25T09:25:53;42.88;;;25.95;;
59486;SDS011;45298;54.918;73.504;2022-09-25T09:34:56;52.40;;;27.85;;
59486;SDS011;45298;54.918;73.504;2022-09-25T09:40:48;32.08;;;12.77;;
59486;SDS011;45298;54.918;73.504;2022-09-25T09:48:57;25.95;;;10.95;;
59486;SDS011;45298;54.918;73.504;2022-09-25T09:51:31;47.75;;;18.25;;
59486;SDS011;45298;54.918;73.504;2022-09-25T09:57:09;39.83;;;19.58;;
59486;SDS011;45298;54.918;73.504;2022-09-25T09:59:45;50.58;;;27.95;;
59486;SDS011;45298;54.918;73.504;2022-09-25T10:05:24;51.00;;;24.13;;
59486;SDS011;45298;54.918;73.504;2022-09-25T10:08:01;33.78;;;18.17;;
59486;SDS011;45298;54.918;73.504;2022-09-25T10:10:34;33.13;;;17.35;;
59486;SDS011;45298;54.918;73.504;2022-09-25T10:13:05;54.33;;;24.65;;
59486;SDS011;45298;54.918;73.504;2022-09-25T10:16:03;37.22;;;18.60;;
59486;SDS011;45298;54.918;73.504;2022-09-25T10:18:52;33.25;;;16.05;;
59486;SDS011;45298;54.918;73.504;2022-09-25T10:21:30;39.25;;;17.33;;
59486;SDS011;45298;54.918;73.504;2022-09-25T10:24:05;48.20;;;22.95;;
59486;SDS011;45298;54.918;73.504;2022-09-25T10:26:35;61.67;;;26.25;;
59486;SDS011;45298;54.918;73.504;2022-09-25T10:31:55;45.08;;;24.25;;
59486;SDS011;45298;54.918;73.504;2022-09-25T10:34:28;40.88;;;20.15;;
59486;SDS011;45298;54.918;73.504;2022-09-25T10:36:58;36.72;;;19.77;;
59486;SDS011;45298;54.918;73.504;2022-09-25T10:40:07;31.30;;;16.23;;
59486;SDS011;45298;54.918;73.504;2022-09-25T10:43:01;49.90;;;19.30;;
59486;SDS011;45298;54.918;73.504;2022-09-25T10:45:33;27.88;;;15.23;;
59486;SDS011;45298;54.918;73.504;2022-09-25T10:48:23;30.40;;;16.73;;
59486;SDS011;45298;54.918;73.504;2022-09-25T10:51:18;37.50;;;17.30;;
59486;SDS011;45298;54.918;73.504;2022-09-25T10:53:49;41.92;;;20.20;;
59486;SDS011;45298;54.918;73.504;2022-09-25T10:56:20;51.15;;;26.00;;
59486;SDS011;45298;54.918;73.504;2022-09-25T10:58:58;71.57;;;34.38;;
59486;SDS011;45298;54.918;73.504;2022-09-25T11:04:27;90.40;;;43.45;;
59486;SDS011;45298;54.918;73.504;2022-09-25T11:07:01;87.43;;;44.88;;
59486;SDS011;45298;54.918;73.504;2022-09-25T11:09:34;43.42;;;23.30;;
59486;SDS011;45298;54.918;73.504;2022-09-25T11:12:19;81.50;;;42.22;;
59486;SDS011;45298;54.918;73.504;2022-09-25T11:15:00;60.10;;;35.40;;
59486;SDS011;45298;54.918;73.504;2022-09-25T11:17:40;61.22;;;33.08;;
59486;SDS011;45298;54.918;73.504;2022-09-25T11:25:35;60.20;;;32.97;;
59486;SDS011;45298;54.918;73.504;2022-09-25T11:31:06;42.07;;;23.00;;
59486;SDS011;45298;54.918;73.504;2022-09-25T11:36:45;38.03;;;23.95;;
59486;SDS011;45298;54.918;73.504;2022-09-25T11:39:28;41.88;;;25.92;;
59486;SDS011;45298;54.918;73.504;2022-09-25T11:42:29;52.22;;;27.45;;
59486;SDS011;45298;54.918;73.504;2022-09-25T11:45:33;53.67;;;29.02;;
59486;SDS011;45298;54.918;73.504;2022-09-25T11:48:12;55.22;;;26.67;;
59486;SDS011;45298;54.918;73.504;2022-09-25T11:53:42;43.80;;;25.95;;
59486;SDS011;45298;54.918;73.504;2022-09-25T11:56:59;39.50;;;19.75;;
59486;SDS011;45298;54.918;73.504;2022-09-25T12:02:39;33.20;;;17.20;;
59486;SDS011;45298;54.918;73.504;2022-09-25T12:21:28;43.17;;;23.70;;
59486;SDS011;45298;54.918;73.504;2022-09-25T12:27:14;39.95;;;21.63;;
59486;SDS011;45298;54.918;73.504;2022-09-25T12:30:03;44.83;;;22.60;;
59486;SDS011;45298;54.918;73.504;2022-09-25T12:38:17;31.08;;;17.70;;
59486;SDS011;45298;54.918;73.504;2022-09-25T12:46:44;47.08;;;24.13;;
59486;SDS011;45298;54.918;73.504;2022-09-25T12:52:16;34.67;;;21.93;;
59486;SDS011;45298;54.918;73.504;2022-09-25T12:54:59;31.48;;;19.20;;
59486;SDS011;45298;54.918;73.504;2022-09-25T12:57:43;37.40;;;17.13;;
59486;SDS011;45298;54.918;73.504;2022-09-25T13:00:24;32.22;;;18.17;;
59486;SDS011;45298;54.918;73.504;2022-09-25T13:03:03;39.53;;;20.02;;
59486;SDS011;45298;54.918;73.504;2022-09-25T13:08:12;65.32;;;28.00;;
59486;SDS011;45298;54.918;73.504;2022-09-25T13:13:45;32.55;;;16.92;;
59486;SDS011;45298;54.918;73.504;2022-09-25T13:16:18;35.88;;;19.38;;
59486;SDS011;45298;54.918;73.504;2022-09-25T13:21:57;30.50;;;14.65;;
59486;SDS011;45298;54.918;73.504;2022-09-25T13:27:19;30.38;;;14.07;;
59486;SDS011;45298;54.918;73.504;2022-09-25T13:29:54;25.27;;;14.45;;
59486;SDS011;45298;54.918;73.504;2022-09-25T13:35:06;34.97;;;20.52;;
59486;SDS011;45298;54.918;73.504;2022-09-25T13:37:46;26.83;;;15.18;;
59486;SDS011;45298;54.918;73.504;2022-09-25T13:40:17;35.13;;;19.20;;
59486;SDS011;45298;54.918;73.504;2022-09-25T13:43:24;31.20;;;17.58;;
59486;SDS011;45298;54.918;73.504;2022-09-25T13:48:51;29.77;;;18.55;;
59486;SDS011;45298;54.918;73.504;2022-09-25T13:54:21;23.33;;;13.95;;
59486;SDS011;45298;54.918;73.504;2022-09-25T13:56:57;30.88;;;18.65;;
59486;SDS011;45298;54.918;73.504;2022-09-25T13:59:34;40.78;;;23.65;;
59486;SDS011;45298;54.918;73.504;2022-09-25T14:05:12;28.10;;;17.08;;
59486;SDS011;45298;54.918;73.504;2022-09-25T14:07:43;34.30;;;20.17;;
59486;SDS011;45298;54.918;73.504;2022-09-25T14:10:14;33.58;;;17.05;;
59486;SDS011;45298;54.918;73.504;2022-09-25T14:12:45;29.17;;;18.90;;
59486;SDS011;45298;54.918;73.504;2022-09-25T14:15:35;23.38;;;13.18;;
59486;SDS011;45298;54.918;73.504;2022-09-25T14:18:32;29.63;;;19.25;;
59486;SDS011;45298;54.918;73.504;2022-09-25T14:21:05;27.15;;;14.90;;
59486;SDS011;45298;54.918;73.504;2022-09-25T14:23:47;23.42;;;12.98;;
59486;SDS011;45298;54.918;73.504;2022-09-25T14:26:22;19.20;;;10.80;;
59486;SDS011;45298;54.918;73.504;2022-09-25T14:28:56;21.80;;;11.15;;
59486;SDS011;45298;54.918;73.504;2022-09-25T14:47:41;105.20;;;63.17;;
59486;SDS011;45298;54.918;73.504;2022-09-25T14:50:23;51.97;;;31.33;;
59486;SDS011;45298;54.918;73.504;2022-09-25T14:52:55;48.75;;;24.67;;
59486;SDS011;45298;54.918;73.504;2022-09-25T14:55:29;29.05;;;15.60;;
59486;SDS011;45298;54.918;73.504;2022-09-25T14:58:02;24.48;;;11.90;;
59486;SDS011;45298;54.918;73.504;2022-09-25T15:00:36;22.77;;;12.63;;
59486;SDS011;45298;54.918;73.504;2022-09-25T15:03:14;12.40;;;7.78;;
59486;SDS011;45298;54.918;73.504;2022-09-25T15:05:47;21.48;;;10.90;;
59486;SDS011;45298;54.918;73.504;2022-09-25T15:08:23;18.48;;;8.80;;
59486;SDS011;45298;54.918;73.504;2022-09-25T15:13:41;15.55;;;8.23;;
59486;SDS011;45298;54.918;73.504;2022-09-25T15:16:14;18.52;;;10.10;;
59486;SDS011;45298;54.918;73.504;2022-09-25T15:19:18;9.93;;;5.88;;
59486;SDS011;45298;54.918;73.504;2022-09-25T15:21:52;13.32;;;6.78;;
59486;SDS011;45298;54.918;73.504;2022-09-25T15:24:23;13.10;;;7.32;;
59486;SDS011;45298;54.918;73.504;2022-09-25T15:26:57;18.30;;;8.18;;
59486;SDS011;45298;54.918;73.504;2022-09-25T15:29:36;15.40;;;8.98;;
59486;SDS011;45298;54.918;73.504;2022-09-25T15:32:22;17.65;;;8.98;;
59486;SDS011;45298;54.918;73.504;2022-09-25T15:35:06;11.57;;;6.78;;
59486;SDS011;45298;54.918;73.504;2022-09-25T15:37:45;29.65;;;12.10;;
59486;SDS011;45298;54.918;73.504;2022-09-25T15:40:19;16.55;;;7.78;;
59486;SDS011;45298;54.918;73.504;2022-09-25T15:42:52;15.98;;;8.27;;
59486;SDS011;45298;54.918;73.504;2022-09-25T15:48:20;11.57;;;6.80;;
59486;SDS011;45298;54.918;73.504;2022-09-25T15:50:52;15.40;;;8.00;;
59486;SDS011;45298;54.918;73.504;2022-09-25T15:53:23;11.55;;;5.97;;
59486;SDS011;45298;54.918;73.504;2022-09-25T15:58:57;8.27;;;5.13;;
59486;SDS011;45298;54.918;73.504;2022-09-25T16:01:40;8.95;;;5.53;;
59486;SDS011;45298;54.918;73.504;2022-09-25T16:04:28;9.57;;;5.22;;
59486;SDS011;45298;54.918;73.504;2022-09-25T16:07:28;13.57;;;6.50;;
59486;SDS011;45298;54.918;73.504;2022-09-25T16:17:59;15.73;;;6.88;;
59486;SDS011;45298;54.918;73.504;2022-09-25T16:23:04;11.70;;;7.43;;
59486;SDS011;45298;54.918;73.504;2022-09-25T16:25:45;16.00;;;8.80;;
59486;SDS011;45298;54.918;73.504;2022-09-25T16:28:39;11.15;;;5.90;;
59486;SDS011;45298;54.918;73.504;2022-09-25T16:31:15;11.13;;;5.25;;
59486;SDS011;45298;54.918;73.504;2022-09-25T16:33:51;6.75;;;4.18;;
59486;SDS011;45298;54.918;73.504;2022-09-25T16:36:24;7.43;;;4.47;;
59486;SDS011;45298;54.918;73.504;2022-09-25T16:41:37;13.10;;;6.55;;
59486;SDS011;45298;54.918;73.504;2022-09-25T16:44:16;7.75;;;4.05;;
59486;SDS011;45298;54.918;73.504;2022-09-25T16:49:23;8.18;;;5.30;;
59486;SDS011;45298;54.918;73.504;2022-09-25T16:51:53;12.68;;;7.20;;
59486;SDS011;45298;54.918;73.504;2022-09-25T16:54:23;9.15;;;5.50;;
59486;SDS011;45298;54.918;73.504;2022-09-25T16:56:58;13.45;;;6.00;;
59486;SDS011;45298;54.918;73.504;2022-09-25T16:59:29;15.73;;;6.68;;
59486;SDS011;45298;54.918;73.504;2022-09-25T17:01:59;7.53;;;4.00;;
59486;SDS011;45298;54.918;73.504;2022-09-25T17:04:47;11.48;;;5.28;;
59486;SDS011;45298;54.918;73.504;2022-09-25T17:07:17;13.45;;;5.13;;
59486;SDS011;45298;54.918;73.504;2022-09-25T17:09:46;9.05;;;4.90;;
59486;SDS011;45298;54.918;73.504;2022-09-25T17:12:17;8.98;;;5.50;;
59486;SDS011;45298;54.918;73.504;2022-09-25T17:14:50;10.68;;;5.20;;
59486;SDS011;45298;54.918;73.504;2022-09-25T17:17:23;5.35;;;3.55;;
59486;SDS011;45298;54.918;73.504;2022-09-25T17:19:52;7.40;;;4.25;;
59486;SDS011;45298;54.918;73.504;2022-09-25T17:22:21;7.47;;;4.53;;
59486;SDS011;45298;54.918;73.504;2022-09-25T17:24:57;7.15;;;4.22;;
59486;SDS011;45298;54.918;73.504;2022-09-25T17:27:29;6.82;;;3.80;;
59486;SDS011;45298;54.918;73.504;2022-09-25T17:29:59;6.78;;;3.70;;
59486;SDS011;45298;54.918;73.504;2022-09-25T17:32:28;6.43;;;3.88;;
59486;SDS011;45298;54.918;73.504;2022-09-25T17:34:58;7.35;;;4.18;;
59486;SDS011;45298;54.918;73.504;2022-09-25T17:37:28;6.35;;;3.72;;
59486;SDS011;45298;54.918;73.504;2022-09-25T17:39:56;7.72;;;4.70;;
59486;SDS011;45298;54.918;73.504;2022-09-25T17:42:28;5.47;;;3.55;;
59486;SDS011;45298;54.918;73.504;2022-09-25T17:44:57;9.48;;;5.10;;
59486;SDS011;45298;54.918;73.504;2022-09-25T17:47:27;8.60;;;5.15;;
59486;SDS011;45298;54.918;73.504;2022-09-25T17:49:59;8.98;;;4.53;;
59486;SDS011;45298;54.918;73.504;2022-09-25T17:52:28;7.78;;;4.65;;
59486;SDS011;45298;54.918;73.504;2022-09-25T17:54:58;9.98;;;4.50;;
59486;SDS011;45298;54.918;73.504;2022-09-25T17:57:27;6.90;;;4.40;;
59486;SDS011;45298;54.918;73.504;2022-09-25T18:00:00;8.57;;;5.57;;
59486;SDS011;45298;54.918;73.504;2022-09-25T18:02:30;6.80;;;4.13;;